createdAt,value
2023-03-22T00:00:47.124Z,7.09
2023-03-22T00:01:47.924Z,7.08
2023-03-22T00:02:48.835Z,7.07
2023-03-22T00:03:49.593Z,7.05
2023-03-22T00:03:58.284Z,6.90
2023-03-22T00:04:58.471Z,6.81
2023-03-22T00:05:59.233Z,6.81
2023-03-22T00:07:00.041Z,6.81
2023-03-22T00:08:00.673Z,6.81
2023-03-22T00:09:01.399Z,6.81
2023-03-22T00:10:01.482Z,6.81
2023-03-22T00:11:02.111Z,6.81
2023-03-22T00:12:02.973Z,6.81
2023-03-22T00:13:03.650Z,6.81
2023-03-22T00:14:04.346Z,6.80
2023-03-22T00:14:12.962Z,6.83
2023-03-22T00:15:13.629Z,6.80
2023-03-22T00:16:14.463Z,6.80
2023-03-22T00:17:15.149Z,6.79
2023-03-22T00:18:15.839Z,6.79
2023-03-22T00:19:16.478Z,6.79
2023-03-22T00:20:19.608Z,6.79
2023-03-22T00:21:17.869Z,6.79
2023-03-22T00:22:18.647Z,6.79
2023-03-22T00:23:19.236Z,6.79
2023-03-22T00:24:19.915Z,6.78
2023-03-22T00:25:20.664Z,6.78
2023-03-22T00:25:29.242Z,6.50
2023-03-22T00:26:29.925Z,6.74
2023-03-22T00:27:30.742Z,6.74
2023-03-22T00:28:31.389Z,6.74
2023-03-22T00:29:32.089Z,6.73
2023-03-22T00:30:32.217Z,6.73
2023-03-22T00:31:33.050Z,6.72
2023-03-22T00:32:33.984Z,6.72
2023-03-22T00:33:34.737Z,6.71
2023-03-22T00:34:35.537Z,6.71
2023-03-22T00:35:36.239Z,6.70
2023-03-22T00:36:36.930Z,6.69
2023-03-22T00:36:46.569Z,6.60
2023-03-22T00:37:47.338Z,6.63
2023-03-22T00:38:47.846Z,6.63
2023-03-22T00:39:48.566Z,6.63
2023-03-22T00:40:49.192Z,6.62
2023-03-22T00:41:49.933Z,6.62
2023-03-22T00:42:50.671Z,6.62
2023-03-22T00:43:51.399Z,6.62
2023-03-22T00:44:52.247Z,6.62
2023-03-22T00:45:52.918Z,6.61
2023-03-22T00:46:53.848Z,6.61
2023-03-22T00:47:54.418Z,6.60
2023-03-22T00:48:07.436Z,6.52
2023-03-22T00:49:07.958Z,6.47
2023-03-22T00:50:08.650Z,6.47
2023-03-22T00:51:09.348Z,6.47
2023-03-22T00:52:10.019Z,6.47
2023-03-22T00:53:10.760Z,6.47
2023-03-22T00:54:11.381Z,6.47
2023-03-22T00:55:12.129Z,6.47
2023-03-22T00:56:12.862Z,6.47
2023-03-22T00:57:13.791Z,6.47
2023-03-22T00:58:14.544Z,6.47
2023-03-22T00:58:23.210Z,6.47
2023-03-22T00:59:23.331Z,6.47
2023-03-22T01:00:23.954Z,6.46
2023-03-22T01:01:24.637Z,6.46
2023-03-22T01:02:25.308Z,6.46
2023-03-22T01:03:26.210Z,6.47
2023-03-22T01:04:26.334Z,6.47
2023-03-22T01:05:26.935Z,6.47
2023-03-22T01:06:27.642Z,6.47
2023-03-22T01:07:28.362Z,6.47
2023-03-22T01:08:39.290Z,6.57
2023-03-22T01:09:39.293Z,6.51
2023-03-22T01:10:40.406Z,6.51
2023-03-22T01:11:40.888Z,6.51
2023-03-22T01:12:41.462Z,6.50
2023-03-22T01:13:42.287Z,6.50
2023-03-22T01:14:43.073Z,6.50
2023-03-22T01:15:43.692Z,6.50
2023-03-22T01:16:44.503Z,6.49
2023-03-22T01:17:45.323Z,6.49
2023-03-22T01:18:46.271Z,6.49
2023-03-22T01:19:46.925Z,6.49
2023-03-22T01:19:55.511Z,6.43
2023-03-22T01:20:56.183Z,6.40
2023-03-22T01:21:57.162Z,6.40
2023-03-22T01:22:57.876Z,6.39
2023-03-22T01:23:58.659Z,6.39
2023-03-22T01:24:59.577Z,6.39
2023-03-22T01:26:00.274Z,6.38
2023-03-22T01:27:00.886Z,6.38
2023-03-22T01:28:01.485Z,6.38
2023-03-22T01:29:02.198Z,6.37
2023-03-22T01:30:03.047Z,6.37
2023-03-22T01:30:11.676Z,5.87
2023-03-22T01:31:12.409Z,6.26
2023-03-22T01:32:12.902Z,6.26
2023-03-22T01:33:13.586Z,6.26
2023-03-22T01:34:14.380Z,6.26
2023-03-22T01:35:15.170Z,6.27
2023-03-22T01:36:15.916Z,6.27
2023-03-22T01:37:16.673Z,6.27
2023-03-22T01:38:17.574Z,6.27
2023-03-22T01:39:18.323Z,6.27
2023-03-22T01:40:18.978Z,6.28
2023-03-22T01:41:19.927Z,6.28
2023-03-22T01:41:28.521Z,6.37
2023-03-22T01:42:29.256Z,6.45
2023-03-22T01:43:29.330Z,6.45
2023-03-22T01:44:29.983Z,6.45
2023-03-22T01:45:30.143Z,6.46
2023-03-22T01:46:30.902Z,6.46
2023-03-22T01:47:31.455Z,6.47
2023-03-22T01:48:32.051Z,6.48
2023-03-22T01:49:32.923Z,6.49
2023-03-22T01:50:33.951Z,6.50
2023-03-22T01:51:34.841Z,6.51
2023-03-22T01:51:43.939Z,6.70
2023-03-22T01:52:44.002Z,6.84
2023-03-22T01:53:44.703Z,6.85
2023-03-22T01:54:45.450Z,6.86
2023-03-22T01:55:46.125Z,6.87
2023-03-22T01:56:47.023Z,6.88
2023-03-22T01:57:47.534Z,6.90
2023-03-22T01:58:48.268Z,6.91
2023-03-22T01:59:48.532Z,6.93
2023-03-22T02:00:49.715Z,6.95
2023-03-22T02:01:49.718Z,6.97
2023-03-22T02:02:50.410Z,6.99
2023-03-22T02:02:58.987Z,6.88
2023-03-22T02:03:59.675Z,7.32
2023-03-22T02:05:00.341Z,7.31
2023-03-22T02:06:01.027Z,7.32
2023-03-22T02:07:01.296Z,7.32
2023-03-22T02:08:01.948Z,7.32
2023-03-22T02:09:02.645Z,7.33
2023-03-22T02:10:03.380Z,7.33
2023-03-22T02:11:04.049Z,7.34
2023-03-22T02:12:04.893Z,7.35
2023-03-22T02:13:05.106Z,7.35
2023-03-22T02:13:14.656Z,7.35
2023-03-22T02:14:14.589Z,7.36
2023-03-22T02:15:14.588Z,7.37
2023-03-22T02:16:15.349Z,7.38
2023-03-22T02:17:15.932Z,7.38
2023-03-22T02:18:16.712Z,7.39
2023-03-22T02:19:17.390Z,7.40
2023-03-22T02:20:18.068Z,7.40
2023-03-22T02:21:18.677Z,7.41
2023-03-22T02:22:19.294Z,7.41
2023-03-22T02:23:20.054Z,7.42
2023-03-22T02:23:30.220Z,7.41
2023-03-22T02:24:29.252Z,7.41
2023-03-22T02:25:29.298Z,7.42
2023-03-22T02:26:30.024Z,7.42
2023-03-22T02:27:30.671Z,7.42
2023-03-22T02:28:31.271Z,7.42
2023-03-22T02:29:32.075Z,7.42
2023-03-22T02:30:32.841Z,7.42
2023-03-22T02:31:33.797Z,7.42
2023-03-22T02:32:34.684Z,7.42
2023-03-22T02:33:35.675Z,7.42
2023-03-22T02:34:36.394Z,7.42
2023-03-22T02:34:45.010Z,7.39
2023-03-22T02:35:45.766Z,7.39
2023-03-22T02:36:46.313Z,7.39
2023-03-22T02:37:46.945Z,7.38
2023-03-22T02:38:47.564Z,7.37
2023-03-22T02:39:48.491Z,7.37
2023-03-22T02:40:49.445Z,7.36
2023-03-22T02:41:50.185Z,7.35
2023-03-22T02:42:51.002Z,7.34
2023-03-22T02:43:51.790Z,7.32
2023-03-22T02:44:52.583Z,7.31
2023-03-22T02:45:52.699Z,7.30
2023-03-22T02:46:01.327Z,6.34
2023-03-22T02:47:01.737Z,7.09
2023-03-22T02:48:02.501Z,7.08
2023-03-22T02:49:03.030Z,7.08
2023-03-22T02:50:03.649Z,7.08
2023-03-22T02:51:04.154Z,7.07
2023-03-22T02:52:05.089Z,7.07
2023-03-22T02:53:05.790Z,7.06
2023-03-22T02:54:06.418Z,7.06
2023-03-22T02:55:07.093Z,7.06
2023-03-22T02:56:08.014Z,7.05
2023-03-22T02:56:16.764Z,6.51
2023-03-22T02:57:17.349Z,6.97
2023-03-22T02:58:18.087Z,6.96
2023-03-22T02:59:18.740Z,6.96
2023-03-22T03:00:19.359Z,6.95
2023-03-22T03:01:20.326Z,6.94
2023-03-22T03:02:20.869Z,6.93
2023-03-22T03:03:21.434Z,6.92
2023-03-22T03:04:22.188Z,6.91
2023-03-22T03:05:22.839Z,6.89
2023-03-22T03:06:23.535Z,6.88
2023-03-22T03:06:32.185Z,6.84
2023-03-22T03:07:32.798Z,6.83
2023-03-22T03:08:33.462Z,6.81
2023-03-22T03:09:34.148Z,6.80
2023-03-22T03:10:35.015Z,6.79
2023-03-22T03:11:35.798Z,6.77
2023-03-22T03:12:36.414Z,6.76
2023-03-22T03:13:37.135Z,6.75
2023-03-22T03:14:37.920Z,6.73
2023-03-22T03:15:38.531Z,6.72
2023-03-22T03:16:39.207Z,6.70
2023-03-22T03:16:47.840Z,5.84
2023-03-22T03:17:48.604Z,6.45
2023-03-22T03:18:49.268Z,6.45
2023-03-22T03:19:49.900Z,6.45
2023-03-22T03:20:50.657Z,6.45
2023-03-22T03:21:51.450Z,6.44
2023-03-22T03:22:52.409Z,6.44
2023-03-22T03:23:53.363Z,6.43
2023-03-22T03:24:54.011Z,6.43
2023-03-22T03:25:54.058Z,6.42
2023-03-22T03:26:54.863Z,6.41
2023-03-22T03:27:54.997Z,6.41
2023-03-22T03:28:04.658Z,5.85
2023-03-22T03:29:05.445Z,6.29
2023-03-22T03:30:06.222Z,6.29
2023-03-22T03:31:06.931Z,6.29
2023-03-22T03:32:07.623Z,6.28
2023-03-22T03:33:08.549Z,6.28
2023-03-22T03:34:09.224Z,6.28
2023-03-22T03:35:09.966Z,6.27
2023-03-22T03:36:10.737Z,6.27
2023-03-22T03:37:11.390Z,6.27
2023-03-22T03:38:12.168Z,6.26
2023-03-22T03:38:20.896Z,5.66
2023-03-22T03:39:21.514Z,6.15
2023-03-22T03:40:22.192Z,6.15
2023-03-22T03:41:22.861Z,6.15
2023-03-22T03:42:23.668Z,6.14
2023-03-22T03:43:24.287Z,6.14
2023-03-22T03:44:24.897Z,6.13
2023-03-22T03:45:25.747Z,6.13
2023-03-22T03:46:26.398Z,6.12
2023-03-22T03:47:27.098Z,6.12
2023-03-22T03:48:28.006Z,6.11
2023-03-22T03:49:28.588Z,6.11
2023-03-22T03:49:37.762Z,6.09
2023-03-22T03:50:38.601Z,6.08
2023-03-22T03:51:39.008Z,6.08
2023-03-22T03:52:39.668Z,6.07
2023-03-22T03:53:40.234Z,6.06
2023-03-22T03:54:40.837Z,6.06
2023-03-22T03:55:41.569Z,6.05
2023-03-22T03:56:42.335Z,6.04
2023-03-22T03:57:43.204Z,6.03
2023-03-22T03:58:43.930Z,6.02
2023-03-22T03:59:44.659Z,6.01
2023-03-22T03:59:53.381Z,5.98
2023-03-22T04:00:54.049Z,5.97
2023-03-22T04:01:54.321Z,5.96
2023-03-22T04:02:55.082Z,5.95
2023-03-22T04:03:55.859Z,5.94
2023-03-22T04:04:56.469Z,5.93
2023-03-22T04:05:57.165Z,5.92
2023-03-22T04:06:57.862Z,5.91
2023-03-22T04:07:58.549Z,5.89
2023-03-22T04:08:59.231Z,5.88
2023-03-22T04:09:59.987Z,5.87
2023-03-22T04:10:08.693Z,5.84
2023-03-22T04:11:09.411Z,5.83
2023-03-22T04:12:10.097Z,5.82
2023-03-22T04:13:11.047Z,5.81
2023-03-22T04:14:11.343Z,5.81
2023-03-22T04:15:11.953Z,5.80
2023-03-22T04:16:12.721Z,5.79
2023-03-22T04:17:13.376Z,5.79
2023-03-22T04:18:14.128Z,5.79
2023-03-22T04:19:14.826Z,5.79
2023-03-22T04:20:15.473Z,5.79
2023-03-22T04:21:16.268Z,5.79
2023-03-22T04:21:27.504Z,5.77
2023-03-22T04:22:28.248Z,5.77
2023-03-22T04:23:29.155Z,5.77
2023-03-22T04:24:29.976Z,5.77
2023-03-22T04:25:30.778Z,5.77
2023-03-22T04:26:31.566Z,5.78
2023-03-22T04:27:32.150Z,5.78
2023-03-22T04:28:32.943Z,5.78
2023-03-22T04:29:33.597Z,5.78
2023-03-22T04:30:34.320Z,5.78
2023-03-22T04:31:34.555Z,5.79
2023-03-22T04:32:35.379Z,5.79
2023-03-22T04:32:43.946Z,5.30
2023-03-22T04:33:44.606Z,5.83
2023-03-22T04:34:45.200Z,5.83
2023-03-22T04:35:45.589Z,5.83
2023-03-22T04:36:46.361Z,5.84
2023-03-22T04:37:47.153Z,5.84
2023-03-22T04:38:47.874Z,5.85
2023-03-22T04:39:48.667Z,5.85
2023-03-22T04:40:49.384Z,5.85
2023-03-22T04:41:50.144Z,5.86
2023-03-22T04:42:50.949Z,5.86
2023-03-22T04:43:51.862Z,5.87
2023-03-22T04:44:00.369Z,5.88
2023-03-22T04:45:01.098Z,5.89
2023-03-22T04:46:01.840Z,5.90
2023-03-22T04:47:02.619Z,5.91
2023-03-22T04:48:02.949Z,5.92
2023-03-22T04:49:03.116Z,5.93
2023-03-22T04:50:03.895Z,5.94
2023-03-22T04:51:04.807Z,5.95
2023-03-22T04:52:05.699Z,5.96
2023-03-22T04:53:06.556Z,5.97
2023-03-22T04:54:07.504Z,5.98
2023-03-22T04:55:07.521Z,5.99
2023-03-22T04:55:16.241Z,5.58
2023-03-22T04:56:17.136Z,6.06
2023-03-22T04:57:19.055Z,6.06
2023-03-22T04:58:18.171Z,6.06
2023-03-22T04:59:18.721Z,6.06
2023-03-22T05:00:19.491Z,6.06
2023-03-22T05:01:20.433Z,6.06
2023-03-22T05:02:20.462Z,6.07
2023-03-22T05:03:21.373Z,6.07
2023-03-22T05:04:21.720Z,6.07
2023-03-22T05:05:21.946Z,6.08
2023-03-22T05:06:22.063Z,6.08
2023-03-22T05:06:31.471Z,6.03
2023-03-22T05:07:32.259Z,6.04
2023-03-22T05:08:33.085Z,6.04
2023-03-22T05:09:33.861Z,6.05
2023-03-22T05:10:34.564Z,6.06
2023-03-22T05:11:34.635Z,6.07
2023-03-22T05:12:35.502Z,6.08
2023-03-22T05:13:36.309Z,6.09
2023-03-22T05:14:37.415Z,6.09
2023-03-22T05:15:38.126Z,6.10
2023-03-22T05:16:39.043Z,6.11
2023-03-22T05:16:47.673Z,5.62
2023-03-22T05:17:48.300Z,6.20
2023-03-22T05:18:48.928Z,6.19
2023-03-22T05:19:49.607Z,6.19
2023-03-22T05:20:50.338Z,6.19
2023-03-22T05:21:51.147Z,6.19
2023-03-22T05:22:51.745Z,6.20
2023-03-22T05:23:52.414Z,6.20
2023-03-22T05:24:53.174Z,6.20
2023-03-22T05:25:53.346Z,6.21
2023-03-22T05:26:54.050Z,6.21
2023-03-22T05:27:54.645Z,6.21
2023-03-22T05:28:05.767Z,6.20
2023-03-22T05:29:06.569Z,6.20
2023-03-22T05:30:07.497Z,6.21
2023-03-22T05:31:08.210Z,6.20
2023-03-22T05:32:08.948Z,6.20
2023-03-22T05:33:09.758Z,6.20
2023-03-22T05:34:10.359Z,6.21
2023-03-22T05:35:10.753Z,6.21
2023-03-22T05:36:11.558Z,6.21
2023-03-22T05:37:12.283Z,6.21
2023-03-22T05:38:13.259Z,6.22
2023-03-22T05:38:28.451Z,5.80
2023-03-22T05:39:29.049Z,6.30
2023-03-22T05:40:29.862Z,6.30
2023-03-22T05:41:30.702Z,6.30
2023-03-22T05:42:30.822Z,6.30
2023-03-22T05:43:31.810Z,6.30
2023-03-22T05:44:31.613Z,6.29
2023-03-22T05:45:32.555Z,6.29
2023-03-22T05:46:33.528Z,6.29
2023-03-22T05:47:34.366Z,6.29
2023-03-22T05:48:35.138Z,6.29
2023-03-22T05:49:36.028Z,6.29
2023-03-22T05:49:46.402Z,5.73
2023-03-22T05:50:46.861Z,6.32
2023-03-22T05:51:47.605Z,6.32
2023-03-22T05:52:48.290Z,6.33
2023-03-22T05:53:49.049Z,6.33
2023-03-22T05:54:49.722Z,6.34
2023-03-22T05:55:50.498Z,6.35
2023-03-22T05:56:51.264Z,6.35
2023-03-22T05:57:51.899Z,6.36
2023-03-22T05:58:52.649Z,6.37
2023-03-22T05:59:53.434Z,6.38
2023-03-22T06:00:54.199Z,6.39
2023-03-22T06:01:02.831Z,6.04
2023-03-22T06:02:03.566Z,6.61
2023-03-22T06:03:04.344Z,6.61
2023-03-22T06:04:04.931Z,6.60
2023-03-22T06:05:05.722Z,6.61
2023-03-22T06:06:06.476Z,6.61
2023-03-22T06:07:07.299Z,6.61
2023-03-22T06:08:07.974Z,6.62
2023-03-22T06:09:16.821Z,6.62
2023-03-22T06:10:09.433Z,6.63
2023-03-22T06:11:10.154Z,6.64
2023-03-22T06:12:10.793Z,6.65
2023-03-22T06:12:19.436Z,6.45
2023-03-22T06:13:20.242Z,6.86
2023-03-22T06:14:21.108Z,6.86
2023-03-22T06:15:21.797Z,6.86
2023-03-22T06:16:22.617Z,6.87
2023-03-22T06:17:23.310Z,6.88
2023-03-22T06:18:24.082Z,6.89
2023-03-22T06:19:24.790Z,6.90
2023-03-22T06:20:25.651Z,6.90
2023-03-22T06:21:26.509Z,6.92
2023-03-22T06:22:27.216Z,6.93
2023-03-22T06:23:28.062Z,6.94
2023-03-22T06:23:39.792Z,6.99
2023-03-22T06:24:39.886Z,7.17
2023-03-22T06:25:40.714Z,7.17
2023-03-22T06:26:41.147Z,7.17
2023-03-22T06:27:41.898Z,7.18
2023-03-22T06:28:42.557Z,7.19
2023-03-22T06:29:43.539Z,7.20
2023-03-22T06:30:44.314Z,7.22
2023-03-22T06:31:45.180Z,7.23
2023-03-22T06:32:46.096Z,7.25
2023-03-22T06:33:46.166Z,7.28
2023-03-22T06:33:56.050Z,7.32
2023-03-22T06:34:55.839Z,7.34
2023-03-22T06:35:56.632Z,7.36
2023-03-22T06:36:57.317Z,7.39
2023-03-22T06:37:57.970Z,7.41
2023-03-22T06:38:58.628Z,7.43
2023-03-22T06:39:59.403Z,7.45
2023-03-22T06:41:00.100Z,7.48
2023-03-22T06:42:00.967Z,7.51
2023-03-22T06:43:05.150Z,7.53
2023-03-22T06:44:02.480Z,7.55
2023-03-22T06:45:03.307Z,7.58
2023-03-22T06:45:12.058Z,7.82
2023-03-22T06:46:12.868Z,7.98
2023-03-22T06:47:13.616Z,7.98
2023-03-22T06:48:14.550Z,7.98
2023-03-22T06:49:14.510Z,7.99
2023-03-22T06:50:14.480Z,8.00
2023-03-22T06:51:14.497Z,8.00
2023-03-22T06:52:15.196Z,8.00
2023-03-22T06:53:15.942Z,8.01
2023-03-22T06:54:16.544Z,8.02
2023-03-22T06:55:17.104Z,8.03
2023-03-22T06:56:17.718Z,8.04
2023-03-22T06:56:29.432Z,8.03
2023-03-22T06:57:30.189Z,8.04
2023-03-22T06:58:30.849Z,8.06
2023-03-22T06:59:31.533Z,8.07
2023-03-22T07:00:32.209Z,8.08
2023-03-22T07:01:32.254Z,8.10
2023-03-22T07:02:32.855Z,8.11
2023-03-22T07:03:33.779Z,8.13
2023-03-22T07:04:34.586Z,8.15
2023-03-22T07:05:35.347Z,8.16
2023-03-22T07:06:36.075Z,8.17
2023-03-22T07:07:36.956Z,8.18
2023-03-22T07:07:45.655Z,8.23
2023-03-22T07:08:47.998Z,8.38
2023-03-22T07:09:47.512Z,8.37
2023-03-22T07:10:48.251Z,8.38
2023-03-22T07:11:49.023Z,8.39
2023-03-22T07:12:49.767Z,8.40
2023-03-22T07:13:50.473Z,8.40
2023-03-22T07:14:51.263Z,8.41
2023-03-22T07:15:52.109Z,8.42
2023-03-22T07:16:52.861Z,8.44
2023-03-22T07:17:53.441Z,8.45
2023-03-22T07:18:02.074Z,8.59
2023-03-22T07:19:03.103Z,8.72
2023-03-22T07:20:04.065Z,8.72
2023-03-22T07:21:03.877Z,8.72
2023-03-22T07:22:04.760Z,8.73
2023-03-22T07:23:05.562Z,8.74
2023-03-22T07:24:06.475Z,8.75
2023-03-22T07:25:07.251Z,8.76
2023-03-22T07:26:07.986Z,8.76
2023-03-22T07:27:08.887Z,8.76
2023-03-22T07:28:09.678Z,8.76
2023-03-22T07:29:10.504Z,8.76
2023-03-22T07:30:11.155Z,8.75
2023-03-22T07:30:19.812Z,8.67
2023-03-22T07:31:20.652Z,8.78
2023-03-22T07:32:21.608Z,8.76
2023-03-22T07:33:22.421Z,8.75
2023-03-22T07:34:23.240Z,8.74
2023-03-22T07:35:26.771Z,8.75
2023-03-22T07:36:24.246Z,8.76
2023-03-22T07:37:25.048Z,8.77
2023-03-22T07:38:25.944Z,8.80
2023-03-22T07:39:26.658Z,8.83
2023-03-22T07:40:27.495Z,8.86
2023-03-22T07:41:28.330Z,8.91
2023-03-22T07:42:29.267Z,8.96
2023-03-22T07:42:37.918Z,9.70
2023-03-22T07:43:52.350Z,9.86
2023-03-22T07:44:39.432Z,9.87
2023-03-22T07:45:39.450Z,9.89
2023-03-22T07:46:40.570Z,9.92
2023-03-22T07:47:41.604Z,9.95
2023-03-22T07:48:41.226Z,10.00
2023-03-22T07:49:41.860Z,10.06
2023-03-22T07:50:42.696Z,10.13
2023-03-22T07:51:43.457Z,10.19
2023-03-22T07:52:44.188Z,10.27
2023-03-22T07:53:45.016Z,10.34
2023-03-22T07:53:53.753Z,9.82
2023-03-22T07:54:54.544Z,11.35
2023-03-22T07:55:55.397Z,11.34
2023-03-22T07:56:56.349Z,11.34
2023-03-22T07:57:57.421Z,11.35
2023-03-22T07:58:58.384Z,11.34
2023-03-22T07:59:59.271Z,11.36
2023-03-22T08:01:00.071Z,11.37
2023-03-22T08:02:01.007Z,11.42
2023-03-22T08:03:01.838Z,11.50
2023-03-22T08:04:02.575Z,11.58
2023-03-22T08:05:03.496Z,11.64
2023-03-22T08:05:12.244Z,10.95
2023-03-22T08:06:13.217Z,12.54
2023-03-22T08:07:14.060Z,12.53
2023-03-22T08:08:14.899Z,12.52
2023-03-22T08:09:15.742Z,12.51
2023-03-22T08:10:16.579Z,12.49
2023-03-22T08:11:17.410Z,12.48
2023-03-22T08:12:18.409Z,12.46
2023-03-22T08:13:19.148Z,12.44
2023-03-22T08:14:27.512Z,12.42
2023-03-22T08:15:22.539Z,12.40
2023-03-22T08:16:21.269Z,12.40
2023-03-22T08:16:31.462Z,10.67
2023-03-22T08:17:32.065Z,12.63
2023-03-22T08:18:32.974Z,12.67
2023-03-22T08:19:33.882Z,12.71
2023-03-22T08:20:34.602Z,12.75
2023-03-22T08:21:35.544Z,12.81
2023-03-22T08:22:35.605Z,12.90
2023-03-22T08:23:41.791Z,12.96
2023-03-22T08:24:37.245Z,13.01
2023-03-22T08:25:38.098Z,13.04
2023-03-22T08:26:38.935Z,13.11
2023-03-22T08:27:39.797Z,13.18
2023-03-22T08:27:48.969Z,13.07
2023-03-22T08:28:49.698Z,14.18
2023-03-22T08:29:49.763Z,14.16
2023-03-22T08:30:50.571Z,14.16
2023-03-22T08:31:51.471Z,14.16
2023-03-22T08:32:52.264Z,14.13
2023-03-22T08:33:53.140Z,14.11
2023-03-22T08:34:53.228Z,14.09
2023-03-22T08:35:54.024Z,14.08
2023-03-22T08:36:54.909Z,14.03
2023-03-22T08:37:55.741Z,13.98
2023-03-22T08:38:56.509Z,13.92
2023-03-22T08:39:05.736Z,12.07
2023-03-22T08:40:06.638Z,12.88
2023-03-22T08:41:06.862Z,12.87
2023-03-22T08:42:07.692Z,12.85
2023-03-22T08:43:08.466Z,12.84
2023-03-22T08:44:09.408Z,12.83
2023-03-22T08:45:10.292Z,12.81
2023-03-22T08:46:11.004Z,12.80
2023-03-22T08:47:11.046Z,12.79
2023-03-22T08:48:11.954Z,12.77
2023-03-22T08:49:12.747Z,12.76
2023-03-22T08:50:13.644Z,12.75
2023-03-22T08:50:22.819Z,12.20
2023-03-22T08:51:23.697Z,12.70
2023-03-22T08:52:24.571Z,12.72
2023-03-22T08:53:25.385Z,12.74
2023-03-22T08:54:26.212Z,12.77
2023-03-22T08:55:27.216Z,12.79
2023-03-22T08:56:28.035Z,12.81
2023-03-22T08:57:28.790Z,12.81
2023-03-22T08:58:29.661Z,12.82
2023-03-22T08:59:30.415Z,12.83
2023-03-22T09:00:45.759Z,12.84
2023-03-22T09:01:31.505Z,12.84
2023-03-22T09:01:40.151Z,12.21
2023-03-22T09:02:40.868Z,13.06
2023-03-22T09:03:41.676Z,13.06
2023-03-22T09:04:42.026Z,13.07
2023-03-22T09:05:42.921Z,13.06
2023-03-22T09:06:43.792Z,13.04
2023-03-22T09:07:44.724Z,13.02
2023-03-22T09:08:45.563Z,13.02
2023-03-22T09:09:45.728Z,13.01
2023-03-22T09:10:45.985Z,13.01
2023-03-22T09:11:46.129Z,13.01
2023-03-22T09:12:47.035Z,12.99
2023-03-22T09:12:57.746Z,12.04
2023-03-22T09:13:58.572Z,12.68
2023-03-22T09:14:59.362Z,12.68
2023-03-22T09:16:00.268Z,12.68
2023-03-22T09:17:01.054Z,12.68
2023-03-22T09:18:01.900Z,12.68
2023-03-22T09:19:02.825Z,12.69
2023-03-22T09:20:12.377Z,12.69
2023-03-22T09:21:04.455Z,12.68
2023-03-22T09:22:04.435Z,12.68
2023-03-22T09:23:05.216Z,12.68
2023-03-22T09:24:05.997Z,12.67
2023-03-22T09:24:14.701Z,11.93
2023-03-22T09:25:14.918Z,12.70
2023-03-22T09:26:14.956Z,12.69
2023-03-22T09:27:15.772Z,12.69
2023-03-22T09:28:16.604Z,12.69
2023-03-22T09:29:17.238Z,12.69
2023-03-22T09:30:18.044Z,12.70
2023-03-22T09:31:20.552Z,12.73
2023-03-22T09:32:19.814Z,12.76
2023-03-22T09:33:19.897Z,12.78
2023-03-22T09:34:20.214Z,12.80
2023-03-22T09:35:20.454Z,12.81
2023-03-22T09:35:29.136Z,12.68
2023-03-22T09:36:29.938Z,13.31
2023-03-22T09:37:30.819Z,13.31
2023-03-22T09:38:31.594Z,13.34
2023-03-22T09:39:31.656Z,13.40
2023-03-22T09:40:32.436Z,13.45
2023-03-22T09:41:33.256Z,13.50
2023-03-22T09:42:34.059Z,13.53
2023-03-22T09:43:34.111Z,13.57
2023-03-22T09:44:35.036Z,13.65
2023-03-22T09:45:35.881Z,13.73
2023-03-22T09:46:36.869Z,13.81
2023-03-22T09:46:45.514Z,14.02
2023-03-22T09:47:46.363Z,15.18
2023-03-22T09:48:48.261Z,15.18
2023-03-22T09:49:53.433Z,15.18
2023-03-22T09:50:46.775Z,15.20
2023-03-22T09:51:47.594Z,15.21
2023-03-22T09:52:48.339Z,15.22
2023-03-22T09:53:49.134Z,15.25
2023-03-22T09:54:52.600Z,15.27
2023-03-22T09:55:50.638Z,15.29
2023-03-22T09:56:51.568Z,15.32
2023-03-22T09:57:52.390Z,15.36
2023-03-22T09:58:01.182Z,15.38
2023-03-22T09:59:01.947Z,15.38
2023-03-22T10:00:02.821Z,15.39
2023-03-22T10:01:03.759Z,15.38
2023-03-22T10:02:05.138Z,15.36
2023-03-22T10:03:05.280Z,15.36
2023-03-22T10:04:05.452Z,15.36
2023-03-22T10:05:05.526Z,15.36
2023-03-22T10:06:05.817Z,15.36
2023-03-22T10:07:06.076Z,15.38
2023-03-22T10:08:06.346Z,15.38
2023-03-22T10:09:07.180Z,15.40
2023-03-22T10:10:08.049Z,15.39
2023-03-22T10:10:17.226Z,15.65
2023-03-22T10:11:23.623Z,15.65
2023-03-22T10:12:19.106Z,15.66
2023-03-22T10:13:20.001Z,15.64
2023-03-22T10:14:20.661Z,15.62
2023-03-22T10:15:20.863Z,15.60
2023-03-22T10:16:21.701Z,15.57
2023-03-22T10:17:22.743Z,15.57
2023-03-22T10:18:23.009Z,15.57
2023-03-22T10:19:23.113Z,15.57
2023-03-22T10:20:24.033Z,15.59
2023-03-22T10:21:24.738Z,15.60
2023-03-22T10:21:33.421Z,16.06
2023-03-22T10:22:34.648Z,16.06
2023-03-22T10:23:34.403Z,16.05
2023-03-22T10:24:35.221Z,16.04
2023-03-22T10:25:35.872Z,16.02
2023-03-22T10:26:36.654Z,15.99
2023-03-22T10:27:37.513Z,15.94
2023-03-22T10:28:38.285Z,15.87
2023-03-22T10:29:38.590Z,15.80
2023-03-22T10:30:39.105Z,15.75
2023-03-22T10:31:39.654Z,15.66
2023-03-22T10:31:48.428Z,14.49
2023-03-22T10:32:57.473Z,14.47
2023-03-22T10:33:49.974Z,14.47
2023-03-22T10:34:50.740Z,14.47
2023-03-22T10:35:50.795Z,14.47
2023-03-22T10:36:51.646Z,14.46
2023-03-22T10:37:52.689Z,14.47
2023-03-22T10:38:53.555Z,14.47
2023-03-22T10:39:53.569Z,14.48
2023-03-22T10:40:54.508Z,14.49
2023-03-22T10:41:57.848Z,14.50
2023-03-22T10:42:56.260Z,14.52
2023-03-22T10:43:05.444Z,14.63
2023-03-22T10:44:06.269Z,14.61
2023-03-22T10:45:07.086Z,14.61
2023-03-22T10:46:07.943Z,14.60
2023-03-22T10:47:08.916Z,14.60
2023-03-22T10:48:08.810Z,14.60
2023-03-22T10:49:08.922Z,14.60
2023-03-22T10:50:09.797Z,14.58
2023-03-22T10:51:10.520Z,14.57
2023-03-22T10:52:11.383Z,14.57
2023-03-22T10:53:12.385Z,14.56
2023-03-22T10:54:13.204Z,14.56
2023-03-22T10:54:21.855Z,14.57
2023-03-22T10:55:22.008Z,14.56
2023-03-22T10:56:22.842Z,14.56
2023-03-22T10:57:23.691Z,14.56
2023-03-22T10:58:24.512Z,14.54
2023-03-22T10:59:25.014Z,14.53
2023-03-22T11:00:25.818Z,14.52
2023-03-22T11:01:26.785Z,14.50
2023-03-22T11:02:27.696Z,14.50
2023-03-22T11:03:27.788Z,14.49
2023-03-22T11:04:28.219Z,14.48
2023-03-22T11:05:29.131Z,14.47
2023-03-22T11:05:38.456Z,14.49
2023-03-22T11:06:38.708Z,14.49
2023-03-22T11:07:38.892Z,14.49
2023-03-22T11:08:38.977Z,14.48
2023-03-22T11:09:39.940Z,14.48
2023-03-22T11:10:40.889Z,14.46
2023-03-22T11:11:41.746Z,14.44
2023-03-22T11:12:42.614Z,14.44
2023-03-22T11:13:43.504Z,14.44
2023-03-22T11:14:44.226Z,14.43
2023-03-22T11:15:44.992Z,14.42
2023-03-22T11:16:45.647Z,14.43
2023-03-22T11:16:54.790Z,14.56
2023-03-22T11:17:55.512Z,14.54
2023-03-22T11:18:56.416Z,14.54
2023-03-22T11:19:57.234Z,14.54
2023-03-22T11:20:57.919Z,14.55
2023-03-22T11:21:58.873Z,14.55
2023-03-22T11:22:59.640Z,14.55
2023-03-22T11:23:59.757Z,14.55
2023-03-22T11:25:00.422Z,14.55
2023-03-22T11:26:00.756Z,14.55
2023-03-22T11:27:01.556Z,14.55
2023-03-22T11:27:10.733Z,14.69
2023-03-22T11:28:10.826Z,14.67
2023-03-22T11:29:11.700Z,14.67
2023-03-22T11:30:12.440Z,14.67
2023-03-22T11:31:13.254Z,14.66
2023-03-22T11:32:14.269Z,14.65
2023-03-22T11:33:14.432Z,14.64
2023-03-22T11:34:14.704Z,14.64
2023-03-22T11:35:14.913Z,14.64
2023-03-22T11:36:15.049Z,14.65
2023-03-22T11:37:18.089Z,14.64
2023-03-22T11:38:16.736Z,14.65
2023-03-22T11:38:24.775Z,14.70
2023-03-22T11:39:25.773Z,14.65
2023-03-22T11:40:26.459Z,14.64
2023-03-22T11:41:27.347Z,14.64
2023-03-22T11:42:28.128Z,14.64
2023-03-22T11:43:28.191Z,14.64
2023-03-22T11:44:29.066Z,14.64
2023-03-22T11:45:29.862Z,14.63
2023-03-22T11:46:30.653Z,14.63
2023-03-22T11:47:31.418Z,14.63
2023-03-22T11:48:32.321Z,14.62
2023-03-22T11:48:41.059Z,14.72
2023-03-22T11:49:41.772Z,14.69
2023-03-22T11:50:42.981Z,14.69
2023-03-22T11:51:43.326Z,14.70
2023-03-22T11:52:44.214Z,14.71
2023-03-22T11:53:45.101Z,14.71
2023-03-22T11:54:45.137Z,14.69
2023-03-22T11:55:45.232Z,14.69
2023-03-22T11:56:45.348Z,14.69
2023-03-22T11:57:46.227Z,14.69
2023-03-22T11:58:47.250Z,14.69
2023-03-22T11:59:48.119Z,14.69
2023-03-22T11:59:56.793Z,14.73
2023-03-22T12:00:57.554Z,14.70
2023-03-22T12:01:58.542Z,14.70
2023-03-22T12:02:59.587Z,14.71
2023-03-22T12:04:00.445Z,14.72
2023-03-22T12:05:01.418Z,14.73
2023-03-22T12:06:02.282Z,14.73
2023-03-22T12:07:02.549Z,14.74
2023-03-22T12:08:02.646Z,14.75
2023-03-22T12:09:03.506Z,14.75
2023-03-22T12:10:03.971Z,14.75
2023-03-22T12:11:04.851Z,14.75
2023-03-22T12:12:05.794Z,14.75
2023-03-22T12:12:14.480Z,13.99
2023-03-22T12:13:15.248Z,14.81
2023-03-22T12:14:15.564Z,14.80
2023-03-22T12:15:16.490Z,14.79
2023-03-22T12:16:17.604Z,14.80
2023-03-22T12:17:17.623Z,14.81
2023-03-22T12:18:18.545Z,14.82
2023-03-22T12:19:19.255Z,14.82
2023-03-22T12:20:20.111Z,14.83
2023-03-22T12:21:20.412Z,14.84